Time;durP1;ratioP1;P1;durP2;ratioP2;P2;SDS_P1;SDS_P2;PMS_P1;PMS_P2;Temp;Humidity;BMP_temperature;BMP_pressure;BME280_temperature;BME280_humidity;BME280_pressure;Samples;Min_cycle;Max_cycle;Signal;HPM_P1;HPM_P2
2022/08/10 00:00:50;;;;;;;;;;;;;;;19.69;42.96;98798.66;4936292;29;20441;-76
2022/08/10 00:03:19;;;;;;;;;;;;;;;19.53;43.15;98802.13;4936615;29;19929;-76
2022/08/10 00:05:49;;;;;;;;;;;;;;;19.54;43.13;98803.72;4920546;29;19941;-76
2022/08/10 00:08:21;;;;;;;;;;;;;;;19.57;42.97;98796.72;4921256;29;19964;-76
2022/08/10 00:10:54;;;;;;;;;;;;;;;19.52;43.06;98799.72;4955647;28;19926;-76
2022/08/10 00:13:22;;;;;;;;;;;;;;;19.48;43.33;98799.59;4979082;28;19936;-76
2022/08/10 00:15:51;;;;;;;;;;;;;;;19.59;43.05;98810.97;4979019;28;19921;-76
2022/08/10 00:18:22;;;;;;;2.70;1.33;;;;;;;19.40;43.69;98808.03;4990992;28;19968;-77
2022/08/10 00:21:04;;;;;;;3.75;1.10;;;;;;;19.40;43.81;98803.31;4978297;28;20053;-76
2022/08/10 00:23:34;;;;;;;;;;;;;;;19.51;43.35;98803.63;4996094;28;20050;-76
2022/08/10 00:26:06;;;;;;;;;;;;;;;19.34;43.62;98794.50;4997891;28;20008;-76
2022/08/10 00:28:38;;;;;;;2.60;1.40;;;;;;;19.30;43.83;98793.56;4920605;29;19927;-76
2022/08/10 00:31:06;;;;;;;2.87;1.40;;;;;;;19.10;44.10;98789.81;4912699;29;20052;-76
2022/08/10 00:33:59;;;;;;;5.60;1.90;;;;;;;19.14;44.13;98791.88;4919340;29;20146;-77
2022/08/10 00:36:28;;;;;;;3.13;1.45;;;;;;;19.19;44.07;98786.13;4919351;29;20059;-77
2022/08/10 00:39:01;;;;;;;2.30;1.35;;;;;;;19.18;43.92;98795.56;4920326;29;20120;-76
2022/08/10 00:41:30;;;;;;;4.30;1.70;;;;;;;19.10;44.03;98791.75;4914090;29;20433;-77
2022/08/10 00:43:58;;;;;;;3.90;1.60;;;;;;;19.13;44.29;98787.53;4918748;29;20473;-77
2022/08/10 00:46:26;;;;;;;;;;;;;;;19.15;44.30;98786.03;4933744;28;20382;-76
2022/08/10 00:48:54;;;;;;;;;;;;;;;19.20;44.38;98783.03;4995694;28;19922;-76
2022/08/10 00:51:29;;;;;;;;;;;;;;;19.24;43.85;98786.69;4975549;28;19930;-77
2022/08/10 00:54:16;;;;;;;;;;;;;;;19.23;43.89;98781.50;4935126;29;19930;-76
2022/08/10 00:56:57;;;;;;;;;;;;;;;19.18;43.83;98785.34;4935059;29;19922;-76
2022/08/10 00:59:44;;;;;;;;;;;;;;;19.06;44.37;98782.59;4934527;29;20314;-76
2022/08/10 01:02:24;;;;;;;;;;;;;;;19.13;44.06;98779.25;4921255;29;19978;-76
2022/08/10 01:04:52;;;;;;;;;;;;;;;19.11;44.08;98785.09;4933912;29;20321;-76
2022/08/10 01:07:56;;;;;;;;;;;;;;;19.08;44.03;98781.09;4934248;29;19937;-76
2022/08/10 01:10:28;;;;;;;;;;;;;;;18.99;44.35;98776.84;4879711;29;20013;-76
2022/08/10 01:13:01;;;;;;;;;;;;;;;18.98;44.30;98780.75;4983468;28;19921;-76
2022/08/10 01:15:29;;;;;;;;;;;;;;;18.96;44.65;98785.78;4987581;28;20396;-74
2022/08/10 01:17:58;;;;;;;;;;;;;;;18.94;44.60;98779.84;4979426;28;19933;-74
2022/08/10 01:20:29;;;;;;;;;;;;;;;18.93;44.56;98783.75;4997887;28;19976;-74
2022/08/10 01:23:18;;;;;;;;;;;;;;;18.90;44.54;98787.19;4995495;28;19957;-74
2022/08/10 01:25:53;;;;;;;;;;;;;;;18.88;44.72;98784.78;4949700;28;19968;-74
2022/08/10 01:29:08;;;;;;;;;;;;;;;18.82;44.79;98775.16;4993023;28;19932;-74
2022/08/10 01:31:40;;;;;;;;;;;;;;;18.82;45.00;98783.41;4992827;28;19933;-74
2022/08/10 01:34:12;;;;;;;;;;;;;;;18.79;44.79;98779.38;4982167;28;19933;-75
2022/08/10 01:36:41;;;;;;;;;;;;;;;18.72;44.85;98776.41;4993726;28;19928;-75
2022/08/10 01:39:14;;;;;;;;;;;;;;;18.73;44.47;98779.97;4995144;28;19922;-75
2022/08/10 01:41:43;;;;;;;;;;;;;;;18.67;45.27;98782.13;4992497;28;19930;-75
2022/08/10 01:44:14;;;;;;;;;;;;;;;18.59;45.50;98775.59;4986669;28;19983;-75
2022/08/10 01:46:45;;;;;;;;;;;;;;;18.57;45.29;98782.56;4985017;28;19973;-75
2022/08/10 01:49:13;;;;;;;;;;;;;;;18.37;46.03;98776.00;4977468;28;19953;-75
2022/08/10 01:51:42;;;;;;;;;;;;;;;18.43;46.03;98771.91;4979743;28;19921;-75
2022/08/10 01:54:13;;;;;;;;;;;;;;;18.41;46.15;98784.38;4977910;28;19960;-75
2022/08/10 01:56:44;;;;;;;;;;;;;;;18.41;45.88;98781.63;4994471;28;20339;-74
2022/08/10 01:59:13;;;;;;;;;;;;;;;18.38;45.91;98779.56;4971364;28;19922;-75
2022/08/10 02:01:43;;;;;;;;;;;;;;;18.25;46.18;98773.22;4977114;28;19944;-75
2022/08/10 02:04:12;;;;;;;;;;;;;;;18.21;46.23;98778.59;4976839;28;19922;-75
2022/08/10 02:06:42;;;;;;;;;;;;;;;18.20;46.37;98771.50;4980938;28;20016;-75
2022/08/10 02:09:11;;;;;;;;;;;;;;;18.17;46.50;98774.94;4969443;28;19956;-74
2022/08/10 02:11:39;;;;;;;;;;;;;;;18.08;46.43;98771.47;4973325;28;19925;-75
2022/08/10 02:14:28;;;;;;;;;;;;;;;18.11;46.56;98773.56;4970007;28;19929;-74
2022/08/10 02:17:00;;;;;;;;;;;;;;;18.04;47.06;98776.03;4977651;28;20361;-74
2022/08/10 02:19:30;;;;;;;;;;;;;;;17.97;47.05;98773.06;4974116;28;20016;-77
2022/08/10 02:21:57;;;;;;;;;;;;;;;17.96;47.38;98774.19;4992260;28;20419;-77
2022/08/10 02:24:45;;;;;;;;;;;;;;;17.96;47.59;98776.94;4976797;28;19926;-77
2022/08/10 02:27:13;;;;;;;;;;;;;;;18.00;47.26;98770.44;4979411;28;19921;-77
2022/08/10 02:29:44;;;;;;;;;;;;;;;17.90;47.66;98765.38;4988807;28;19935;-76
2022/08/10 02:32:37;;;;;;;;;;;;;;;17.86;47.65;98771.88;4989635;28;20288;-78
2022/08/10 02:35:08;;;;;;;;;;;;;;;17.86;47.71;98769.94;4978019;28;19976;-77
2022/08/10 02:37:49;;;;;;;2.90;1.10;;;;;;;17.77;47.95;98770.00;4969644;28;19928;-77
2022/08/10 02:40:18;;;;;;;2.85;1.40;;;;;;;17.71;48.00;98774.06;4963712;28;20042;-75
2022/08/10 02:43:22;;;;;;;6.35;1.77;;;;;;;17.70;48.17;98772.47;4977367;28;20053;-75
2022/08/10 02:46:38;;;;;;;3.08;1.90;;;;;;;17.63;48.43;98772.22;5002234;28;20461;-75
2022/08/10 02:49:07;;;;;;;;;;;;;;;17.60;48.63;98775.63;4993751;28;20073;-75
2022/08/10 02:51:39;;;;;;;;;;;;;;;17.52;48.61;98771.00;4975064;28;20380;-75
2022/08/10 02:54:31;;;;;;;;;;;;;;;17.41;48.84;98772.53;4992041;28;20033;-75
2022/08/10 02:57:01;;;;;;;;;;;;;;;17.48;48.80;98779.13;4975466;28;19926;-75
2022/08/10 02:59:30;;;;;;;;;;;;;;;17.41;48.95;98776.09;4989452;28;19985;-75
2022/08/10 03:02:05;;;;;;;;;;;;;;;17.51;48.53;98775.69;4991803;28;19921;-78
2022/08/10 03:04:34;;;;;;;;;;;;;;;17.56;48.57;98785.66;4992342;28;19976;-78
2022/08/10 03:07:27;;;;;;;;;;;;;;;17.47;48.79;98784.94;4976045;28;19921;-78
2022/08/10 03:10:11;;;;;;;;;;;;;;;17.48;48.58;98781.06;4976156;28;19961;-78
2022/08/10 03:12:42;;;;;;;;;;;;;;;17.44;48.60;98780.94;4991362;28;19921;-78
2022/08/10 03:15:11;;;;;;;;;;;;;;;17.43;48.70;98779.31;4993185;28;19930;-78
2022/08/10 03:17:43;;;;;;;;;;;;;;;17.45;48.87;98778.97;4975921;28;19944;-75
2022/08/10 03:20:25;;;;;;;;;;;;;;;17.32;48.96;98780.88;4975546;28;20364;-75
2022/08/10 03:23:09;;;;;;;;;;;;;;;17.28;48.95;98780.72;4994083;28;19925;-75
2022/08/10 03:25:37;;;;;;;;;;;;;;;17.35;48.99;98780.19;4993256;28;20349;-75
2022/08/10 03:28:06;;;;;;;;;;;;;;;17.37;48.88;98780.66;4994496;28;19928;-77
2022/08/10 03:30:34;;;;;;;;;;;;;;;17.39;48.69;98772.09;4974668;28;19957;-78
2022/08/10 03:33:02;;;;;;;;;;;;;;;17.42;48.26;98779.66;4976240;28;19937;-77
2022/08/10 03:35:30;;;;;;;;;;;;;;;17.39;48.19;98780.31;4980970;28;19921;-77
2022/08/10 03:37:58;;;;;;;;;;;;;;;17.28;48.77;98782.66;4978996;28;19964;-77
2022/08/10 03:40:29;;;;;;;;;;;;;;;17.31;48.32;98778.44;4980398;28;20008;-77
2022/08/10 03:43:11;;;;;;;;;;;;;;;17.21;48.97;98785.16;4979441;28;20021;-77
2022/08/10 03:45:42;;;;;;;;;;;;;;;17.21;49.00;98777.72;4997389;28;19922;-77
2022/08/10 03:48:22;;;;;;;;;;;;;;;17.23;48.70;98778.16;4997209;28;19928;-77
2022/08/10 03:51:15;;;;;;;;;;;;;;;17.27;48.82;98783.81;4909481;29;20360;-78
2022/08/10 03:53:43;;;;;;;;;;;;;;;17.21;48.63;98777.72;4905561;29;19979;-78
2022/08/10 03:56:32;;;;;;;;;;;;;;;17.12;48.70;98785.19;4920851;29;19927;-78
2022/08/10 03:59:00;;;;;;;;;;;;;;;17.10;48.67;98782.00;4922201;29;19964;-78
2022/08/10 04:01:28;;;;;;;;;;;;;;;17.14;48.87;98793.09;4918661;29;20367;-78
2022/08/10 04:04:15;;;;;;;;;;;;;;;17.08;48.62;98787.00;4922775;29;19931;-78
2022/08/10 04:06:50;;;;;;;;;;;;;;;17.06;49.05;98793.97;4917361;29;19923;-78
2022/08/10 04:09:46;;;;;;;;;;;;;;;17.07;48.97;98793.63;4976911;28;19921;-78
2022/08/10 04:12:49;;;;;;;;;;;;;;;17.20;48.47;98792.56;5002208;28;20007;-78
2022/08/10 04:15:17;;;;;;;;;;;;;;;17.23;48.39;98807.56;4996525;28;19925;-78
2022/08/10 04:17:45;;;;;;;;;;;;;;;17.14;48.62;98807.63;4995461;28;19952;-77
2022/08/10 04:20:33;;;;;;;;;;;;;;;17.15;48.20;98803.75;4995132;28;19921;-78
2022/08/10 04:23:03;;;;;;;;;;;;;;;17.13;48.52;98803.28;4979011;28;19933;-78
2022/08/10 04:25:31;;;;;;;;;;;;;;;17.05;49.02;98806.88;4994598;28;19948;-78
2022/08/10 04:28:00;;;;;;;;;;;;;;;17.01;48.85;98808.69;4995618;28;19987;-77
2022/08/10 04:30:32;;;;;;;;;;;;;;;17.04;49.11;98799.75;4992651;28;20020;-78
2022/08/10 04:33:00;;;;;;;;;;;;;;;16.91;49.15;98806.31;4994476;28;20477;-78
2022/08/10 04:35:28;;;;;;;;;;;;;;;16.99;49.57;98802.69;4979952;28;19987;-78
2022/08/10 04:37:57;;;;;;;;;;;;;;;17.13;49.28;98803.28;4996287;28;19936;-78
2022/08/10 04:40:29;;;;;;;;;;;;;;;17.05;50.51;98795.91;4982873;28;19947;-77
2022/08/10 04:43:03;;;;;;;;;;;;;;;16.97;50.21;98802.25;4996765;28;20359;-77
2022/08/10 04:45:39;;;;;;;;;;;;;;;16.99;49.68;98798.03;4981640;28;19929;-78
2022/08/10 04:48:17;;;;;;;;;;;;;;;16.96;50.49;98793.19;5002879;28;20069;-78
2022/08/10 04:51:05;;;;;;;;;;;;;;;16.91;50.07;98796.13;4975713;28;19992;-78
2022/08/10 04:53:33;;;;;;;;;;;;;;;17.12;49.30;98800.88;4994590;28;19922;-78
2022/08/10 04:56:24;;;;;;;;;;;;;;;17.02;49.59;98793.81;5002401;28;20011;-77
2022/08/10 04:59:00;;;;;;;;;;;;;;;17.03;49.91;98798.97;4998660;28;19959;-77
2022/08/10 05:01:28;;;;;;;;;;;;;;;17.05;50.12;98795.09;5005474;28;19932;-77
2022/08/10 05:04:16;;;;;;;;;;;;;;;17.06;49.32;98797.50;5006297;28;19957;-77
2022/08/10 05:07:02;;;;;;;;;;;;;;;17.05;50.30;98797.84;5010775;28;19940;-76
2022/08/10 05:09:32;;;;;;;;;;;;;;;17.12;50.61;98804.41;4983466;28;19940;-77
2022/08/10 05:12:00;;;;;;;;;;;;;;;17.15;49.85;98801.03;4998067;28;19986;-78
2022/08/10 05:14:32;;;;;;;;;;;;;;;17.22;49.60;98804.03;4923774;29;20053;-78
2022/08/10 05:17:00;;;;;;;;;;;;;;;17.29;49.75;98807.03;4924860;29;19933;-79
2022/08/10 05:19:28;;;;;;;;;;;;;;;17.31;49.75;98808.63;4918714;29;19923;-77
2022/08/10 05:22:15;;;;;;;;;;;;;;;17.37;48.97;98813.63;4914550;29;19960;-77
2022/08/10 05:24:46;;;;;;;;;;;;;;;17.55;48.74;98815.09;4914982;29;20047;-75
2022/08/10 05:27:14;;;;;;;;;;;;;;;17.55;49.38;98819.78;4916929;29;20414;-78
2022/08/10 05:29:44;;;;;;;;;;;;;;;17.60;48.16;98816.84;4891221;29;20399;-76
2022/08/10 05:32:36;;;;;;;;;;;;;;;17.63;48.98;98818.94;4937549;28;19956;-76
2022/08/10 05:35:25;;;;;;;;;;;;;;;17.65;48.59;98824.88;4958155;28;19948;-76
2022/08/10 05:37:56;;;;;;;;;;;;;;;17.73;48.39;98825.97;4959936;28;20393;-77
2022/08/10 05:40:38;;;;;;;;;;;;;;;17.76;49.21;98831.59;4954960;28;19933;-78
2022/08/10 05:43:06;;;;;;;;;;;;;;;17.93;47.64;98821.59;4929853;29;19938;-77
2022/08/10 05:45:35;;;;;;;;;;;;;;;17.94;48.38;98815.75;4911928;29;20017;-76
2022/08/10 05:48:25;;;;;;;;;;;;;;;18.07;47.95;98816.63;4917742;29;19941;-76
2022/08/10 05:51:15;;;;;;;;;;;;;;;18.11;47.42;98812.06;4937428;29;20467;-75
2022/08/10 05:53:43;;;;;;;;;;;;;;;18.13;48.28;98822.72;4917620;29;19953;-76
2022/08/10 05:56:30;;;;;;;;;;;;;;;18.26;47.49;98819.66;4918193;29;19933;-75
2022/08/10 05:59:18;;;;;;;;;;;;;;;18.31;47.45;98818.63;4915682;29;19933;-77
2022/08/10 06:02:08;;;;;;;;;;;;;;;18.35;47.30;98816.81;4951565;28;19942;-77
2022/08/10 06:04:56;;;;;;;;;;;;;;;18.46;47.04;98815.22;4974577;28;19940;-76
2022/08/10 06:07:26;;;;;;;;;;;;;;;18.74;46.46;98820.09;4998396;28;20406;-77
2022/08/10 06:15:52;;;;;;;;;;;;;;;18.81;46.41;98823.91;4975924;28;20000;-76
2022/08/10 06:18:21;;;;;;;;;;;;;;;18.96;45.76;98819.66;4994074;28;20383;-76
2022/08/10 06:20:51;;;;;;;;;;;;;;;19.08;46.13;98821.63;4991722;28;19948;-76
2022/08/10 06:23:19;;;;;;;;;;;;;;;19.16;45.85;98823.44;4986644;28;20326;-76
2022/08/10 06:25:49;;;;;;;;;;;;;;;19.47;45.16;98822.00;4987565;28;19994;-76
2022/08/10 06:29:02;;;;;;;;;;;;;;;19.39;45.37;98818.25;4991104;28;19964;-76
2022/08/10 06:31:31;;;;;;;;;;;;;;;19.52;44.95;98832.78;4988002;28;19943;-76
2022/08/10 06:34:17;;;;;;;;;;;;;;;19.54;45.23;98824.97;4973292;28;19988;-76
2022/08/10 06:36:46;;;;;;;;;;;;;;;19.71;44.56;98835.78;4990409;28;20027;-73
2022/08/10 06:39:14;;;;;;;;;;;;;;;19.74;44.35;98832.31;4976577;28;19936;-79
2022/08/10 06:42:03;;;;;;;;;;;;;;;19.93;43.47;98830.88;4975699;28;20343;-74
2022/08/10 06:47:37;;;;;;;;;;;;;;;19.98;43.50;98830.63;4987207;28;19936;-76
2022/08/10 06:50:08;;;;;;;;;;;;;;;20.12;43.37;98834.56;4991426;28;20414;-75
2022/08/10 06:52:36;;;;;;;;;;;;;;;20.10;43.85;98836.88;4972733;28;19976;-75
2022/08/10 06:55:05;;;;;;;;;;;;;;;20.16;43.17;98834.66;4979438;28;19980;-75
2022/08/10 06:57:35;;;;;;;;;;;;;;;20.34;42.56;98835.16;4976267;28;19940;-75
2022/08/10 07:00:04;;;;;;;;;;;;;;;20.20;42.83;98835.56;4982338;28;19972;-75
2022/08/10 07:02:35;;;;;;;;;;;;;;;20.37;42.81;98839.97;4969220;28;20413;-75
2022/08/10 07:05:29;;;;;;;;;;;;;;;20.50;42.04;98835.19;4994852;28;19938;-75
2022/08/10 07:07:58;;;;;;;;;;;;;;;20.57;42.35;98835.41;4975803;28;19936;-75
2022/08/10 07:10:26;;;;;;;;;;;;;;;20.60;42.16;98835.47;4976463;28;20017;-75
2022/08/10 07:13:33;;;;;;;;;;;;;;;20.70;42.49;98833.34;4995298;28;19936;-75
2022/08/10 07:16:21;;;;;;;;;;;;;;;20.71;42.27;98827.47;4986419;28;19952;-73
2022/08/10 07:18:48;;;;;;;;;;;;;;;20.87;41.88;98825.50;4980108;28;19932;-76
2022/08/10 07:21:18;;;;;;;;;;;;;;;20.93;41.92;98824.09;4970603;28;19987;-75
2022/08/10 07:23:46;;;;;;;;;;;;;;;21.07;41.80;98828.34;4993681;28;19921;-75
2022/08/10 07:26:29;;;;;;;;;;;;;;;21.14;40.97;98818.25;4971484;28;20458;-72
2022/08/10 07:28:57;;;;;;;;;;;;;;;21.30;40.36;98821.00;4975489;28;20307;-75
2022/08/10 07:31:28;;;;;;;2.63;1.25;;;;;;;21.41;40.72;98821.25;4975629;28;19929;-75
2022/08/10 07:34:19;;;;;;;2.60;1.00;;;;;;;21.46;40.66;98826.50;4978321;28;20121;-75
2022/08/10 07:37:01;;;;;;;3.90;1.30;;;;;;;21.56;41.16;98825.13;4991722;28;20422;-75
2022/08/10 07:39:30;;;;;;;3.95;1.50;;;;;;;21.63;40.75;98817.00;4974617;28;20450;-76
2022/08/10 07:42:19;;;;;;;;;;;;;;;21.96;39.27;98831.13;4985995;28;19922;-75
2022/08/10 07:44:49;;;;;;;;;;;;;;;21.82;39.82;98819.78;4989895;28;20001;-77
2022/08/10 07:47:18;;;;;;;;;;;;;;;22.09;39.15;98822.69;4994804;28;19921;-77
2022/08/10 07:49:46;;;;;;;;;;;;;;;22.19;39.07;98822.13;4992774;28;19936;-76
2022/08/10 07:52:17;;;;;;;;;;;;;;;22.19;38.81;98824.88;4983882;28;19922;-77
2022/08/10 07:54:46;;;;;;;;;;;;;;;22.11;39.62;98820.41;4977766;28;20315;-74
2022/08/10 07:57:22;;;;;;;2.90;1.52;;;;;;;22.17;39.30;98824.47;4992106;28;20202;-74
2022/08/10 08:00:16;;;;;;;2.77;1.47;;;;;;;22.30;39.54;98825.09;4973519;28;20066;-76
2022/08/10 08:02:52;;;;;;;4.03;1.92;;;;;;;22.39;38.76;98818.16;4974427;28;20046;-77
2022/08/10 08:05:22;;;;;;;5.40;1.60;;;;;;;22.39;38.30;98820.91;4989808;28;20088;-76
2022/08/10 08:08:14;;;;;;;3.25;1.40;;;;;;;22.64;38.48;98821.38;4996508;28;20430;-76
2022/08/10 08:11:07;;;;;;;3.00;1.73;;;;;;;22.65;38.36;98820.19;4975793;28;20073;-74
2022/08/10 08:13:36;;;;;;;2.93;1.40;;;;;;;22.75;38.34;98818.78;4978634;28;20057;-76
2022/08/10 08:16:05;;;;;;;2.42;1.33;;;;;;;22.74;38.13;98819.94;4990822;28;20050;-74
2022/08/10 08:18:53;;;;;;;3.15;1.50;;;;;;;22.80;37.78;98818.47;5000211;28;20042;-74
2022/08/10 08:21:41;;;;;;;3.97;1.55;;;;;;;22.91;37.38;98824.22;4992541;28;20140;-74
2022/08/10 08:24:36;;;;;;;2.92;1.10;;;;;;;22.97;38.16;98812.44;4978029;28;20051;-76
2022/08/10 08:27:06;;;;;;;3.20;1.50;;;;;;;23.09;37.12;98824.50;4995622;28;20054;-77
2022/08/10 08:29:37;;;;;;;3.10;1.50;;;;;;;23.08;36.80;98809.03;4977054;28;20054;-74
2022/08/10 08:32:06;;;;;;;2.90;1.50;;;;;;;23.08;36.54;98822.91;4988569;28;20505;-74
2022/08/10 08:34:39;;;;;;;2.72;1.20;;;;;;;23.20;36.54;98820.72;4978451;28;20137;-74
2022/08/10 08:37:13;;;;;;;6.87;1.40;;;;;;;23.32;35.37;98816.91;4994619;28;20371;-75
2022/08/10 08:40:34;;;;;;;4.00;1.30;;;;;;;23.53;35.05;98828.31;4995143;28;20555;-74
2022/08/10 08:43:24;;;;;;;3.00;1.50;;;;;;;23.60;34.64;98815.75;4982798;28;20065;-74
2022/08/10 08:46:32;;;;;;;2.83;1.25;;;;;;;23.73;34.20;98825.44;4989178;28;20128;-74
2022/08/10 08:49:12;;;;;;;2.75;1.30;;;;;;;23.98;33.33;98814.66;4980557;28;20412;-76
2022/08/10 08:52:02;;;;;;;;;;;;;;;23.95;33.83;98818.97;4977306;28;20426;-75
2022/08/10 08:54:45;;;;;;;3.17;1.57;;;;;;;24.10;33.55;98821.94;4985702;28;20456;-77
2022/08/10 08:57:23;;;;;;;2.67;1.60;;;;;;;24.15;32.96;98825.16;4976987;28;20434;-77
2022/08/10 09:00:19;;;;;;;7.25;1.75;;;;;;;24.25;32.75;98820.91;4994523;28;20422;-77
2022/08/10 09:03:06;;;;;;;7.70;1.75;;;;;;;24.38;32.74;98822.25;5000011;28;20422;-77
2022/08/10 09:05:34;;;;;;;;;;;;;;;24.39;33.15;98818.28;4998730;28;20774;-77
2022/08/10 09:08:37;;;;;;;;;;;;;;;24.31;32.41;98819.38;4971145;28;19953;-77
2022/08/10 09:11:11;;;;;;;;;;;;;;;24.14;32.70;98823.56;4966859;28;19936;-77
2022/08/10 09:13:41;;;;;;;;;;;;;;;24.23;32.52;98814.91;4977352;28;19932;-74
2022/08/10 09:16:15;;;;;;;;;;;;;;;24.28;32.73;98817.34;4995811;28;19950;-75
2022/08/10 09:18:46;;;;;;;;;;;;;;;24.39;32.65;98815.50;4922857;29;19976;-75
2022/08/10 09:21:16;;;;;;;;;;;;;;;24.31;32.59;98816.59;4925909;29;20023;-75
2022/08/10 09:23:47;;;;;;;;;;;;;;;24.26;32.88;98814.16;4865346;29;19935;-75
2022/08/10 09:26:34;;;;;;;;;;;;;;;23.98;32.15;98798.81;4857353;29;20366;-76
2022/08/10 09:29:06;;;;;;;;;;;;;;;23.99;32.20;98800.41;4863146;29;20132;-77
2022/08/10 09:31:43;;;;;;;;;;;;;;;24.10;33.06;98810.81;4876182;29;19937;-75
2022/08/10 09:34:38;;;;;;;;;;;;;;;24.04;32.19;98808.38;4865618;29;19965;-75
2022/08/10 09:37:28;;;;;;;;;;;;;;;24.11;31.94;98806.84;4907186;29;20022;-78
2022/08/10 09:40:13;;;;;;;;;;;;;;;24.22;31.50;98807.78;4914622;29;19938;-77
2022/08/10 09:43:03;;;;;;;;;;;;;;;24.35;32.43;98806.38;4957496;28;19932;-76
2022/08/10 09:45:55;;;;;;;;;;;;;;;24.46;31.87;98804.50;4976649;28;19958;-76
2022/08/10 09:48:25;;;;;;;;;;;;;;;24.25;31.44;98793.94;4975310;28;19943;-77
2022/08/10 09:50:55;;;;;;;;;;;;;;;24.16;32.26;98798.19;4966597;28;19961;-76
2022/08/10 09:53:44;;;;;;;;;;;;;;;24.04;32.23;98797.28;4982239;28;20125;-76
2022/08/10 09:56:21;;;;;;;;;;;;;;;24.05;31.68;98800.84;4958030;28;19987;-76
2022/08/10 09:58:58;;;;;;;;;;;;;;;24.23;30.25;98789.94;4972826;28;20023;-76
2022/08/10 10:01:50;;;;;;;;;;;;;;;24.23;30.62;98789.94;4958696;28;20349;-76
2022/08/10 10:04:26;;;;;;;;;;;;;;;24.09;30.88;98782.25;4973631;28;20309;-76
2022/08/10 10:06:55;;;;;;;;;;;;;;;24.10;31.60;98791.38;4965966;28;19959;-75
2022/08/10 10:09:48;;;;;;;;;;;;;;;24.29;29.61;98780.09;4971799;28;20027;-76
2022/08/10 10:12:30;;;;;;;;;;;;;;;24.67;29.60;98775.31;4962099;28;19940;-76
2022/08/10 10:15:22;;;;;;;;;;;;;;;24.79;29.83;98767.47;4966398;28;19987;-76
2022/08/10 10:18:19;;;;;;;;;;;;;;;24.65;29.67;98772.09;4963248;28;19991;-76
2022/08/10 10:20:53;;;;;;;;;;;;;;;24.56;28.87;98764.91;4925934;28;20376;-76
2022/08/10 10:23:23;;;;;;;;;;;;;;;24.60;28.93;98767.69;4972309;28;20264;-77
2022/08/10 10:25:55;;;;;;;;;;;;;;;24.78;29.81;98759.53;4974015;28;19939;-76
2022/08/10 10:28:32;;;;;;;;;;;;;;;24.93;29.83;98752.88;4978255;28;19936;-76
2022/08/10 10:31:26;;;;;;;;;;;;;;;25.18;29.26;98752.25;4958002;28;20291;-76
2022/08/10 10:33:57;;;;;;;;;;;;;;;25.29;27.05;98753.13;4976678;28;19939;-76
2022/08/10 10:36:27;;;;;;;;;;;;;;;25.42;27.85;98751.63;4968029;28;19944;-76
2022/08/10 10:38:55;;;;;;;;;;;;;;;25.31;28.18;98746.00;4972073;28;20394;-76
2022/08/10 10:41:28;;;;;;;;;;;;;;;25.19;27.96;98737.16;4972968;28;19932;-76
2022/08/10 10:44:22;;;;;;;;;;;;;;;25.15;27.50;98744.72;4969655;28;19940;-76
2022/08/10 10:46:53;;;;;;;;;;;;;;;25.27;27.74;98744.38;4973174;28;19933;-77
2022/08/10 10:49:23;;;;;;;;;;;;;;;25.39;26.80;98748.81;4956141;28;20364;-76
2022/08/10 10:51:54;;;;;;;;;;;;;;;25.58;26.59;98737.38;4974768;28;19936;-76
2022/08/10 10:57:19;;;;;;;;;;;;;;;25.79;27.58;98731.13;4971358;28;19945;-77
2022/08/10 10:59:50;;;;;;;;;;;;;;;25.86;26.97;98737.50;4957587;28;20031;-77
2022/08/10 11:02:31;;;;;;;;;;;;;;;25.92;26.67;98728.75;4973925;28;20296;-77
2022/08/10 11:05:05;;;;;;;;;;;;;;;25.79;28.27;98733.91;4979321;28;20034;-78
2022/08/10 11:07:36;;;;;;;;;;;;;;;25.72;27.80;98726.28;4959292;28;20625;-77
2022/08/10 11:10:08;;;;;;;;;;;;;;;25.81;28.47;98723.16;4967330;28;20388;-80
2022/08/10 11:12:59;;;;;;;;;;;;;;;25.92;26.73;98724.00;4987182;28;20038;-76
2022/08/10 11:15:52;;;;;;;;;;;;;;;25.89;27.86;98718.41;4971447;28;19971;-76
2022/08/10 11:18:26;;;;;;;;;;;;;;;25.92;26.13;98721.19;4984447;28;20306;-76
2022/08/10 11:20:55;;;;;;;;;;;;;;;25.85;26.23;98712.84;4986166;28;20061;-77
2022/08/10 11:23:26;;;;;;;;;;;;;;;25.94;25.97;98716.06;4971459;28;19944;-76
2022/08/10 11:25:56;;;;;;;;;;;;;;;26.00;25.77;98725.59;4981056;28;20376;-76
2022/08/10 11:28:30;;;;;;;;;;;;;;;26.08;26.36;98718.84;4980931;28;19944;-77
2022/08/10 11:30:59;;;;;;;;;;;;;;;26.14;27.91;98719.25;4878118;29;19954;-76
2022/08/10 11:33:29;;;;;;;;;;;;;;;26.03;25.04;98713.66;4899710;29;20013;-76
2022/08/10 11:36:00;;;;;;;;;;;;;;;25.97;25.55;98720.03;4899262;29;20433;-77
2022/08/10 11:38:30;;;;;;;;;;;;;;;26.05;25.69;98716.06;4894519;29;19946;-76
2022/08/10 11:41:10;;;;;;;;;;;;;;;26.10;25.07;98719.28;4896730;29;20032;-76
2022/08/10 11:44:12;;;;;;;;;;;;;;;26.06;25.29;98724.03;4900900;29;19941;-76
2022/08/10 11:46:41;;;;;;;;;;;;;;;25.92;26.55;98724.00;4881845;29;19976;-76
2022/08/10 11:49:10;;;;;;;;;;;;;;;25.69;26.21;98720.72;4931773;28;20410;-76
2022/08/10 11:51:42;;;;;;;;;;;;;;;25.65;26.34;98708.78;4956825;28;19960;-76
2022/08/10 11:54:14;;;;;;;;;;;;;;;25.73;24.36;98710.41;4986856;28;19963;-76
2022/08/10 11:56:45;;;;;;;;;;;;;;;25.93;25.07;98714.44;4976230;28;19936;-77
2022/08/10 12:02:07;;;;;;;;;;;;;;;26.13;25.26;98700.97;4915818;28;20390;-77
2022/08/10 12:04:35;;;;;;;;;;;;;;;26.24;26.10;98709.31;4975308;28;20001;-77
2022/08/10 12:07:04;;;;;;;;;;;;;;;26.32;26.73;98703.38;4981420;28;19936;-76
2022/08/10 12:09:56;;;;;;;;;;;;;;;26.35;26.34;98701.78;4960661;28;19939;-76
2022/08/10 12:12:51;;;;;;;;;;;;;;;26.50;25.00;98697.81;4977360;28;19932;-76
2022/08/10 12:15:20;;;;;;;;;;;;;;;26.55;26.56;98696.63;4960372;28;19984;-76
2022/08/10 12:17:50;;;;;;;;;;;;;;;26.60;25.32;98691.44;4978760;28;19945;-76
2022/08/10 12:20:21;;;;;;;;;;;;;;;26.68;24.96;98694.22;4973786;28;19964;-76
2022/08/10 12:22:50;;;;;;;;;;;;;;;26.66;25.20;98693.84;4959710;28;19932;-76
2022/08/10 12:28:25;;;;;;;;;;;;;;;26.61;25.94;98675.53;4974245;28;20296;-76
2022/08/10 12:31:00;;;;;;;;;;;;;;;26.74;26.65;98690.66;4976686;28;20306;-76
2022/08/10 12:33:29;;;;;;;;;;;;;;;26.72;25.56;98686.66;4993229;28;20667;-76
2022/08/10 12:35:59;;;;;;;;;;;;;;;26.56;24.94;98687.06;4981349;28;20031;-76
2022/08/10 12:38:46;;;;;;;;;;;;;;;26.64;24.81;98691.47;4997143;28;19944;-76
2022/08/10 12:41:18;;;;;;;;;;;;;;;26.57;24.41;98686.66;4995285;28;19943;-76
2022/08/10 12:44:07;;;;;;;;;;;;;;;26.79;24.53;98695.81;4988319;28;20035;-77
2022/08/10 12:46:39;;;;;;;;;;;;;;;26.73;26.60;98683.47;4988486;28;19983;-77
2022/08/10 12:49:09;;;;;;;;;;;;;;;26.58;23.57;98681.88;4996227;28;19957;-76
2022/08/10 12:51:38;;;;;;;;;;;;;;;26.46;24.43;98680.31;4997123;28;19943;-76
2022/08/10 12:54:08;;;;;;;;;;;;;;;26.48;24.43;98677.94;4995897;28;19971;-76
2022/08/10 12:56:39;;;;;;;;;;;;;;;26.52;25.21;98678.69;4997711;28;20414;-76
2022/08/10 12:59:07;;;;;;;;;;;;;;;26.60;24.94;98677.50;4975292;28;19952;-76
2022/08/10 13:01:35;;;;;;;;;;;;;;;26.50;25.91;98675.53;4977396;28;20380;-76
2022/08/10 13:04:27;;;;;;;;;;;;;;;26.42;24.49;98676.75;4996112;28;19963;-76
2022/08/10 13:06:56;;;;;;;;;;;;;;;26.48;24.34;98660.41;4997922;28;19956;-76
2022/08/10 13:12:50;;;;;;;;;;;;;;;26.64;24.50;98661.59;4995659;28;19940;-76
2022/08/10 13:15:20;;;;;;;;;;;;;;;26.66;24.19;98663.16;4993955;28;19962;-76
2022/08/10 13:18:10;;;;;;;;;;;;;;;26.66;24.85;98654.81;4992736;28;20296;-76
2022/08/10 13:20:44;;;;;;;;;;;;;;;26.70;24.49;98663.97;4994290;28;19932;-76
2022/08/10 13:23:14;;;;;;;;;;;;;;;26.71;24.33;98659.97;4995669;28;19939;-76
2022/08/10 13:25:44;;;;;;;;;;;;;;;26.75;24.74;98652.41;4977653;28;19932;-76
2022/08/10 13:28:14;;;;;;;;;;;;;;;26.86;23.96;98653.19;4974218;28;20371;-76
2022/08/10 13:31:02;;;;;;;;;;;;;;;26.79;24.22;98654.00;4974100;28;19946;-76
2022/08/10 13:33:30;;;;;;;;;;;;;;;26.73;25.79;98646.44;4996136;28;19946;-76
2022/08/10 13:36:20;;;;;;;;;;;;;;;26.72;26.63;98640.06;4992800;28;19964;-76
2022/08/10 13:38:48;;;;;;;;;;;;;;;26.69;27.75;98637.31;4996273;28;20510;-77
2022/08/10 13:41:19;;;;;;;;;;;;;;;26.80;24.22;98629.72;4994379;28;19922;-76
2022/08/10 13:43:50;;;;;;;;;;;;;;;26.88;25.06;98634.06;4995011;28;20027;-76